createdAt,value
2019-03-17T00:01:22.728Z,21.35
2019-03-17T00:03:26.363Z,21.62
2019-03-17T00:07:32.922Z,22.37
2019-03-17T00:11:39.285Z,22.37
2019-03-17T00:15:45.811Z,20.40
2019-03-17T00:17:49.425Z,20.43
2019-03-17T00:21:55.853Z,18.27
2019-03-17T00:26:02.186Z,18.15
2019-03-17T00:30:11.344Z,18.05
2019-03-17T00:32:14.912Z,17.73
2019-03-17T00:36:21.337Z,17.82
2019-03-17T00:40:27.727Z,17.48
2019-03-17T00:44:34.136Z,17.27
2019-03-17T00:48:40.560Z,15.80
2019-03-17T00:52:46.987Z,14.43
2019-03-17T00:56:53.355Z,15.95
2019-03-17T01:00:59.749Z,15.35
2019-03-17T01:05:06.580Z,14.70
2019-03-17T01:07:10.156Z,14.70
2019-03-17T01:11:16.497Z,15.25
2019-03-17T01:15:22.995Z,14.85
2019-03-17T01:19:29.384Z,14.45
2019-03-17T01:23:35.746Z,13.10
2019-03-17T01:27:42.343Z,15.23
2019-03-17T01:29:45.837Z,17.65
2019-03-17T01:33:52.218Z,13.98
2019-03-17T01:37:58.651Z,13.38
2019-03-17T01:40:02.219Z,14.28
2019-03-17T01:44:08.639Z,15.05
2019-03-17T01:48:15.005Z,15.48
2019-03-17T01:52:21.343Z,18.25
2019-03-17T01:56:27.696Z,19.10
2019-03-17T02:00:34.306Z,19.05
2019-03-17T02:02:37.899Z,19.60
2019-03-17T02:06:44.396Z,19.82
2019-03-17T02:08:47.971Z,20.00
2019-03-17T02:12:54.367Z,20.02
2019-03-17T02:17:00.721Z,21.68
2019-03-17T02:21:07.200Z,21.82
2019-03-17T02:25:13.576Z,20.68
2019-03-17T02:29:19.922Z,19.77
2019-03-17T02:33:26.297Z,17.82
2019-03-17T02:37:34.401Z,17.87
2019-03-17T02:41:40.873Z,15.40
2019-03-17T02:45:47.273Z,15.23
2019-03-17T02:49:53.743Z,13.62
2019-03-17T02:51:57.302Z,14.65
2019-03-17T02:56:03.744Z,12.30
2019-03-17T02:58:07.344Z,12.82
2019-03-17T03:02:14.236Z,13.32
2019-03-17T03:06:20.604Z,12.98
2019-03-17T03:10:27.029Z,13.93
2019-03-17T03:12:30.614Z,14.53
2019-03-17T03:16:37.331Z,15.15
2019-03-17T03:18:40.910Z,15.40
2019-03-17T03:22:47.366Z,16.25
2019-03-17T03:24:50.934Z,17.57
2019-03-17T03:28:57.331Z,13.38
2019-03-17T03:33:03.882Z,13.70
2019-03-17T03:35:09.158Z,13.40
2019-03-17T03:37:12.720Z,12.00
2019-03-17T03:41:19.082Z,13.03
2019-03-17T03:45:25.516Z,11.25
2019-03-17T03:49:31.865Z,10.90
2019-03-17T03:53:38.254Z,11.97
2019-03-17T03:59:49.129Z,10.43
2019-03-17T04:01:52.849Z,10.63
2019-03-17T04:03:56.492Z,10.03
2019-03-17T04:06:00.075Z,11.12
2019-03-17T04:10:08.694Z,10.72
2019-03-17T04:12:12.279Z,10.72
2019-03-17T04:16:18.643Z,10.88
2019-03-17T04:20:25.038Z,11.78
2019-03-17T04:24:31.560Z,12.45
2019-03-17T04:28:37.973Z,13.60
2019-03-17T04:32:44.450Z,13.78
2019-03-17T04:36:50.862Z,13.65
2019-03-17T04:40:57.205Z,13.70
2019-03-17T04:45:03.817Z,14.43
2019-03-17T04:47:07.519Z,16.55
2019-03-17T04:49:11.076Z,16.05
2019-03-17T04:53:17.488Z,18.07
2019-03-17T04:57:23.924Z,12.07
2019-03-17T04:59:27.565Z,12.13
2019-03-17T05:01:31.156Z,12.33
2019-03-17T05:05:37.519Z,12.53
2019-03-17T05:09:43.988Z,10.93
2019-03-17T05:11:47.592Z,12.00
2019-03-17T05:15:53.982Z,11.97
2019-03-17T05:17:57.577Z,13.18
2019-03-17T05:22:04.011Z,13.90
2019-03-17T05:24:07.610Z,13.70
2019-03-17T05:28:13.961Z,13.38
2019-03-17T05:32:20.408Z,18.17
2019-03-17T05:34:24.005Z,17.40
2019-03-17T05:38:30.359Z,13.95
2019-03-17T05:42:36.738Z,12.75
2019-03-17T05:46:43.254Z,10.65
2019-03-17T05:48:46.862Z,10.90
2019-03-17T05:52:53.239Z,10.03
2019-03-17T05:56:59.613Z,9.75
2019-03-17T06:01:06.112Z,8.73
2019-03-17T06:05:12.547Z,10.48
2019-03-17T06:07:19.011Z,10.55
2019-03-17T06:09:21.378Z,11.08
2019-03-17T06:13:27.749Z,11.85
2019-03-17T06:17:34.107Z,11.88
2019-03-17T06:21:42.731Z,10.63
2019-03-17T06:23:46.378Z,10.78
2019-03-17T06:25:50.008Z,10.20
2019-03-17T06:27:53.571Z,8.80
2019-03-17T06:32:00.005Z,8.33
2019-03-17T06:34:03.611Z,9.38
2019-03-17T06:38:10.021Z,9.60
2019-03-17T06:42:16.772Z,10.50
2019-03-17T06:46:23.182Z,10.00
2019-03-17T06:50:29.531Z,9.98
2019-03-17T06:54:35.900Z,9.50
2019-03-17T06:58:42.358Z,8.60
2019-03-17T07:02:49.112Z,8.50
2019-03-17T07:04:54.109Z,8.50
2019-03-17T07:06:57.852Z,9.58
2019-03-17T07:11:04.305Z,8.83
2019-03-17T07:15:13.627Z,9.35
2019-03-17T07:17:19.339Z,8.40
2019-03-17T07:19:22.422Z,8.60
2019-03-17T07:23:28.804Z,6.85
2019-03-17T07:27:35.208Z,6.75
2019-03-17T07:31:41.547Z,5.92
2019-03-17T07:35:48.515Z,5.37
2019-03-17T07:37:57.012Z,5.65
2019-03-17T07:39:57.394Z,5.83
2019-03-17T07:44:03.887Z,5.78
2019-03-17T07:48:10.335Z,5.83
